sensor_id;sensor_type;location;lat;lon;timestamp;P1;durP1;ratioP1;P2;durP2;ratioP2
37701;SDS011;23548;51.196;6.838;2024-01-07T00:00:41;39.28;;;18.17;;
37701;SDS011;23548;51.196;6.838;2024-01-07T00:03:07;35.78;;;17.27;;
37701;SDS011;23548;51.196;6.838;2024-01-07T00:05:32;36.75;;;18.10;;
37701;SDS011;23548;51.196;6.838;2024-01-07T00:08:00;31.67;;;16.60;;
37701;SDS011;23548;51.196;6.838;2024-01-07T00:10:26;34.47;;;18.23;;
37701;SDS011;23548;51.196;6.838;2024-01-07T00:12:51;40.92;;;18.48;;
37701;SDS011;23548;51.196;6.838;2024-01-07T00:15:18;31.92;;;17.15;;
37701;SDS011;23548;51.196;6.838;2024-01-07T00:17:44;36.40;;;18.10;;
37701;SDS011;23548;51.196;6.838;2024-01-07T00:20:10;36.17;;;17.98;;
37701;SDS011;23548;51.196;6.838;2024-01-07T00:22:36;34.80;;;17.23;;
37701;SDS011;23548;51.196;6.838;2024-01-07T00:25:02;31.67;;;16.35;;
37701;SDS011;23548;51.196;6.838;2024-01-07T00:27:27;33.78;;;17.60;;
37701;SDS011;23548;51.196;6.838;2024-01-07T00:29:53;33.40;;;17.02;;
37701;SDS011;23548;51.196;6.838;2024-01-07T00:32:19;30.60;;;17.35;;
37701;SDS011;23548;51.196;6.838;2024-01-07T00:34:45;30.23;;;16.55;;
37701;SDS011;23548;51.196;6.838;2024-01-07T00:37:10;32.83;;;17.38;;
37701;SDS011;23548;51.196;6.838;2024-01-07T00:39:36;31.05;;;17.20;;
37701;SDS011;23548;51.196;6.838;2024-01-07T00:42:02;31.38;;;16.20;;
37701;SDS011;23548;51.196;6.838;2024-01-07T00:44:28;30.60;;;16.35;;
37701;SDS011;23548;51.196;6.838;2024-01-07T00:46:53;31.33;;;16.50;;
37701;SDS011;23548;51.196;6.838;2024-01-07T00:49:19;32.45;;;15.63;;
37701;SDS011;23548;51.196;6.838;2024-01-07T00:51:45;28.60;;;15.73;;
37701;SDS011;23548;51.196;6.838;2024-01-07T00:54:11;29.27;;;15.77;;
37701;SDS011;23548;51.196;6.838;2024-01-07T00:56:36;34.17;;;16.70;;
37701;SDS011;23548;51.196;6.838;2024-01-07T00:59:02;27.48;;;15.43;;
37701;SDS011;23548;51.196;6.838;2024-01-07T01:01:28;31.88;;;16.05;;
37701;SDS011;23548;51.196;6.838;2024-01-07T01:03:53;27.65;;;15.48;;
37701;SDS011;23548;51.196;6.838;2024-01-07T01:06:19;27.80;;;14.95;;
37701;SDS011;23548;51.196;6.838;2024-01-07T01:08:45;28.48;;;15.40;;
37701;SDS011;23548;51.196;6.838;2024-01-07T01:11:10;28.80;;;15.75;;
37701;SDS011;23548;51.196;6.838;2024-01-07T01:13:36;29.92;;;16.58;;
37701;SDS011;23548;51.196;6.838;2024-01-07T01:16:02;31.70;;;16.77;;
37701;SDS011;23548;51.196;6.838;2024-01-07T01:18:28;30.38;;;17.52;;
37701;SDS011;23548;51.196;6.838;2024-01-07T01:20:55;34.30;;;17.35;;
37701;SDS011;23548;51.196;6.838;2024-01-07T01:23:21;32.85;;;18.10;;
37701;SDS011;23548;51.196;6.838;2024-01-07T01:25:46;32.95;;;18.48;;
37701;SDS011;23548;51.196;6.838;2024-01-07T01:28:12;34.85;;;17.85;;
37701;SDS011;23548;51.196;6.838;2024-01-07T01:30:38;32.53;;;18.00;;
37701;SDS011;23548;51.196;6.838;2024-01-07T01:33:03;35.38;;;18.73;;
37701;SDS011;23548;51.196;6.838;2024-01-07T01:35:29;37.50;;;18.50;;
37701;SDS011;23548;51.196;6.838;2024-01-07T01:37:55;30.55;;;17.48;;
37701;SDS011;23548;51.196;6.838;2024-01-07T01:40:21;34.72;;;18.13;;
37701;SDS011;23548;51.196;6.838;2024-01-07T01:42:46;32.85;;;17.70;;
37701;SDS011;23548;51.196;6.838;2024-01-07T01:45:13;34.33;;;18.88;;
37701;SDS011;23548;51.196;6.838;2024-01-07T01:47:40;33.72;;;18.27;;
37701;SDS011;23548;51.196;6.838;2024-01-07T01:50:06;35.45;;;19.17;;
37701;SDS011;23548;51.196;6.838;2024-01-07T01:52:33;33.00;;;17.17;;
37701;SDS011;23548;51.196;6.838;2024-01-07T01:55:00;32.45;;;18.20;;
37701;SDS011;23548;51.196;6.838;2024-01-07T01:57:28;30.65;;;17.80;;
37701;SDS011;23548;51.196;6.838;2024-01-07T01:59:58;28.67;;;16.90;;
37701;SDS011;23548;51.196;6.838;2024-01-07T02:02:28;33.70;;;17.17;;
37701;SDS011;23548;51.196;6.838;2024-01-07T02:04:56;32.10;;;18.02;;
37701;SDS011;23548;51.196;6.838;2024-01-07T02:07:24;34.65;;;17.67;;
37701;SDS011;23548;51.196;6.838;2024-01-07T02:09:50;32.58;;;17.58;;
37701;SDS011;23548;51.196;6.838;2024-01-07T02:12:15;31.60;;;17.35;;
37701;SDS011;23548;51.196;6.838;2024-01-07T02:18:03;32.10;;;17.25;;
37701;SDS011;23548;51.196;6.838;2024-01-07T02:20:29;28.52;;;16.13;;
37701;SDS011;23548;51.196;6.838;2024-01-07T02:22:55;32.03;;;16.20;;
37701;SDS011;23548;51.196;6.838;2024-01-07T02:25:23;30.63;;;16.58;;
37701;SDS011;23548;51.196;6.838;2024-01-07T02:27:49;32.85;;;17.80;;
37701;SDS011;23548;51.196;6.838;2024-01-07T02:30:15;33.08;;;17.70;;
37701;SDS011;23548;51.196;6.838;2024-01-07T02:32:40;34.47;;;17.50;;
37701;SDS011;23548;51.196;6.838;2024-01-07T02:35:06;32.20;;;17.00;;
37701;SDS011;23548;51.196;6.838;2024-01-07T02:37:32;32.65;;;17.20;;
37701;SDS011;23548;51.196;6.838;2024-01-07T02:39:58;31.30;;;17.20;;
37701;SDS011;23548;51.196;6.838;2024-01-07T02:42:24;29.52;;;16.88;;
37701;SDS011;23548;51.196;6.838;2024-01-07T02:44:49;30.98;;;16.23;;
37701;SDS011;23548;51.196;6.838;2024-01-07T02:47:15;32.80;;;17.25;;
37701;SDS011;23548;51.196;6.838;2024-01-07T02:49:41;33.20;;;18.75;;
37701;SDS011;23548;51.196;6.838;2024-01-07T02:52:06;29.48;;;17.08;;
37701;SDS011;23548;51.196;6.838;2024-01-07T02:54:32;33.40;;;18.13;;
37701;SDS011;23548;51.196;6.838;2024-01-07T02:56:58;34.40;;;19.60;;
37701;SDS011;23548;51.196;6.838;2024-01-07T02:59:23;37.88;;;18.65;;
37701;SDS011;23548;51.196;6.838;2024-01-07T03:01:49;35.85;;;19.10;;
37701;SDS011;23548;51.196;6.838;2024-01-07T03:04:15;35.38;;;18.52;;
37701;SDS011;23548;51.196;6.838;2024-01-07T03:06:41;36.58;;;19.40;;
37701;SDS011;23548;51.196;6.838;2024-01-07T03:09:07;35.92;;;19.48;;
37701;SDS011;23548;51.196;6.838;2024-01-07T03:11:38;37.67;;;19.23;;
37701;SDS011;23548;51.196;6.838;2024-01-07T03:14:05;34.45;;;17.35;;
37701;SDS011;23548;51.196;6.838;2024-01-07T03:16:31;34.83;;;18.17;;
37701;SDS011;23548;51.196;6.838;2024-01-07T03:18:57;36.90;;;20.42;;
37701;SDS011;23548;51.196;6.838;2024-01-07T03:21:23;36.40;;;18.92;;
37701;SDS011;23548;51.196;6.838;2024-01-07T03:23:49;33.38;;;17.88;;
37701;SDS011;23548;51.196;6.838;2024-01-07T03:26:17;30.50;;;15.90;;
37701;SDS011;23548;51.196;6.838;2024-01-07T03:28:43;32.13;;;16.08;;
37701;SDS011;23548;51.196;6.838;2024-01-07T03:31:11;31.67;;;16.63;;
37701;SDS011;23548;51.196;6.838;2024-01-07T03:33:38;33.42;;;16.35;;
37701;SDS011;23548;51.196;6.838;2024-01-07T03:36:08;27.35;;;15.80;;
37701;SDS011;23548;51.196;6.838;2024-01-07T03:38:34;30.60;;;16.02;;
37701;SDS011;23548;51.196;6.838;2024-01-07T03:41:00;28.30;;;15.93;;
37701;SDS011;23548;51.196;6.838;2024-01-07T03:43:25;34.60;;;18.13;;
37701;SDS011;23548;51.196;6.838;2024-01-07T03:45:51;36.72;;;18.98;;
37701;SDS011;23548;51.196;6.838;2024-01-07T03:48:17;36.60;;;19.00;;
37701;SDS011;23548;51.196;6.838;2024-01-07T03:50:43;32.47;;;18.83;;
37701;SDS011;23548;51.196;6.838;2024-01-07T03:53:09;34.53;;;18.23;;
37701;SDS011;23548;51.196;6.838;2024-01-07T03:55:34;32.50;;;18.20;;
37701;SDS011;23548;51.196;6.838;2024-01-07T03:58:01;34.10;;;18.73;;
37701;SDS011;23548;51.196;6.838;2024-01-07T04:00:26;33.17;;;18.38;;
37701;SDS011;23548;51.196;6.838;2024-01-07T04:02:52;29.17;;;17.00;;
37701;SDS011;23548;51.196;6.838;2024-01-07T04:05:18;29.42;;;16.42;;
37701;SDS011;23548;51.196;6.838;2024-01-07T04:07:43;33.45;;;17.48;;
37701;SDS011;23548;51.196;6.838;2024-01-07T04:10:09;30.77;;;16.35;;
37701;SDS011;23548;51.196;6.838;2024-01-07T04:12:36;33.85;;;17.52;;
37701;SDS011;23548;51.196;6.838;2024-01-07T04:15:02;31.83;;;18.48;;
37701;SDS011;23548;51.196;6.838;2024-01-07T04:17:28;39.65;;;20.17;;
37701;SDS011;23548;51.196;6.838;2024-01-07T04:19:54;37.30;;;20.08;;
37701;SDS011;23548;51.196;6.838;2024-01-07T04:22:20;40.50;;;20.40;;
37701;SDS011;23548;51.196;6.838;2024-01-07T04:24:46;37.35;;;19.55;;
37701;SDS011;23548;51.196;6.838;2024-01-07T04:27:12;42.42;;;21.10;;
37701;SDS011;23548;51.196;6.838;2024-01-07T04:29:38;42.47;;;21.25;;
37701;SDS011;23548;51.196;6.838;2024-01-07T04:32:03;41.38;;;21.65;;
37701;SDS011;23548;51.196;6.838;2024-01-07T04:34:29;41.80;;;22.38;;
37701;SDS011;23548;51.196;6.838;2024-01-07T04:36:55;42.00;;;21.55;;
37701;SDS011;23548;51.196;6.838;2024-01-07T04:39:21;39.17;;;21.30;;
37701;SDS011;23548;51.196;6.838;2024-01-07T04:41:46;40.92;;;20.83;;
37701;SDS011;23548;51.196;6.838;2024-01-07T04:44:12;41.95;;;20.67;;
37701;SDS011;23548;51.196;6.838;2024-01-07T04:46:38;42.08;;;22.33;;
37701;SDS011;23548;51.196;6.838;2024-01-07T04:49:05;42.33;;;22.25;;
37701;SDS011;23548;51.196;6.838;2024-01-07T04:51:31;43.22;;;22.20;;
37701;SDS011;23548;51.196;6.838;2024-01-07T04:53:58;41.67;;;21.98;;
37701;SDS011;23548;51.196;6.838;2024-01-07T04:56:24;40.25;;;22.00;;
37701;SDS011;23548;51.196;6.838;2024-01-07T04:58:49;44.50;;;22.20;;
37701;SDS011;23548;51.196;6.838;2024-01-07T05:01:15;44.30;;;23.98;;
37701;SDS011;23548;51.196;6.838;2024-01-07T05:03:41;43.72;;;23.40;;
37701;SDS011;23548;51.196;6.838;2024-01-07T05:06:10;45.17;;;23.10;;
37701;SDS011;23548;51.196;6.838;2024-01-07T05:08:39;41.67;;;22.95;;
37701;SDS011;23548;51.196;6.838;2024-01-07T05:11:06;44.90;;;23.13;;
37701;SDS011;23548;51.196;6.838;2024-01-07T05:13:31;42.85;;;23.73;;
37701;SDS011;23548;51.196;6.838;2024-01-07T05:15:57;42.47;;;22.42;;
37701;SDS011;23548;51.196;6.838;2024-01-07T05:18:23;42.17;;;21.65;;
37701;SDS011;23548;51.196;6.838;2024-01-07T05:20:50;42.10;;;22.67;;
37701;SDS011;23548;51.196;6.838;2024-01-07T05:23:16;41.05;;;20.70;;
37701;SDS011;23548;51.196;6.838;2024-01-07T05:25:42;41.83;;;21.80;;
37701;SDS011;23548;51.196;6.838;2024-01-07T05:28:09;41.13;;;21.58;;
37701;SDS011;23548;51.196;6.838;2024-01-07T05:30:35;41.92;;;22.35;;
37701;SDS011;23548;51.196;6.838;2024-01-07T05:33:01;35.45;;;20.70;;
37701;SDS011;23548;51.196;6.838;2024-01-07T05:35:27;34.28;;;19.25;;
37701;SDS011;23548;51.196;6.838;2024-01-07T05:37:53;33.65;;;19.45;;
37701;SDS011;23548;51.196;6.838;2024-01-07T05:40:18;34.63;;;20.38;;
37701;SDS011;23548;51.196;6.838;2024-01-07T05:42:44;33.42;;;19.33;;
37701;SDS011;23548;51.196;6.838;2024-01-07T05:45:10;37.15;;;21.17;;
37701;SDS011;23548;51.196;6.838;2024-01-07T05:47:35;32.17;;;19.42;;
37701;SDS011;23548;51.196;6.838;2024-01-07T05:50:02;35.97;;;19.77;;
37701;SDS011;23548;51.196;6.838;2024-01-07T05:52:28;39.08;;;21.00;;
37701;SDS011;23548;51.196;6.838;2024-01-07T05:54:53;41.33;;;22.92;;
37701;SDS011;23548;51.196;6.838;2024-01-07T05:57:19;38.83;;;22.02;;
37701;SDS011;23548;51.196;6.838;2024-01-07T05:59:45;39.38;;;21.27;;
37701;SDS011;23548;51.196;6.838;2024-01-07T06:02:11;37.08;;;19.95;;
37701;SDS011;23548;51.196;6.838;2024-01-07T06:04:37;38.85;;;21.05;;
37701;SDS011;23548;51.196;6.838;2024-01-07T06:07:03;38.67;;;19.90;;
37701;SDS011;23548;51.196;6.838;2024-01-07T06:09:29;40.15;;;21.58;;
37701;SDS011;23548;51.196;6.838;2024-01-07T06:11:55;33.38;;;19.52;;
37701;SDS011;23548;51.196;6.838;2024-01-07T06:14:22;37.33;;;19.77;;
37701;SDS011;23548;51.196;6.838;2024-01-07T06:16:48;39.30;;;20.95;;
37701;SDS011;23548;51.196;6.838;2024-01-07T06:19:16;40.10;;;21.00;;
37701;SDS011;23548;51.196;6.838;2024-01-07T06:21:42;36.33;;;20.45;;
37701;SDS011;23548;51.196;6.838;2024-01-07T06:24:08;38.50;;;21.67;;
37701;SDS011;23548;51.196;6.838;2024-01-07T06:26:34;40.50;;;22.15;;
37701;SDS011;23548;51.196;6.838;2024-01-07T06:29:01;43.08;;;23.08;;
37701;SDS011;23548;51.196;6.838;2024-01-07T06:31:27;43.70;;;23.63;;
37701;SDS011;23548;51.196;6.838;2024-01-07T06:33:52;41.17;;;22.17;;
37701;SDS011;23548;51.196;6.838;2024-01-07T06:36:21;44.70;;;22.33;;
37701;SDS011;23548;51.196;6.838;2024-01-07T06:38:47;47.42;;;24.95;;
37701;SDS011;23548;51.196;6.838;2024-01-07T06:41:13;44.20;;;22.05;;
37701;SDS011;23548;51.196;6.838;2024-01-07T06:43:39;43.00;;;22.42;;
37701;SDS011;23548;51.196;6.838;2024-01-07T06:46:05;43.75;;;22.20;;
37701;SDS011;23548;51.196;6.838;2024-01-07T06:48:31;43.50;;;22.63;;
37701;SDS011;23548;51.196;6.838;2024-01-07T06:50:57;40.53;;;21.08;;
37701;SDS011;23548;51.196;6.838;2024-01-07T06:53:23;39.63;;;22.00;;
37701;SDS011;23548;51.196;6.838;2024-01-07T06:55:49;44.25;;;22.00;;
37701;SDS011;23548;51.196;6.838;2024-01-07T06:58:15;42.90;;;22.25;;
37701;SDS011;23548;51.196;6.838;2024-01-07T07:00:40;40.85;;;21.02;;
37701;SDS011;23548;51.196;6.838;2024-01-07T07:03:08;39.17;;;21.05;;
37701;SDS011;23548;51.196;6.838;2024-01-07T07:05:33;39.80;;;22.35;;
37701;SDS011;23548;51.196;6.838;2024-01-07T07:07:59;42.08;;;22.63;;
37701;SDS011;23548;51.196;6.838;2024-01-07T07:10:26;37.78;;;21.83;;
37701;SDS011;23548;51.196;6.838;2024-01-07T07:12:52;43.45;;;23.40;;
37701;SDS011;23548;51.196;6.838;2024-01-07T07:15:17;39.83;;;21.60;;
37701;SDS011;23548;51.196;6.838;2024-01-07T07:17:43;42.17;;;23.55;;
37701;SDS011;23548;51.196;6.838;2024-01-07T07:20:09;38.33;;;21.27;;
37701;SDS011;23548;51.196;6.838;2024-01-07T07:22:35;40.35;;;21.77;;
37701;SDS011;23548;51.196;6.838;2024-01-07T07:25:01;40.42;;;22.17;;
37701;SDS011;23548;51.196;6.838;2024-01-07T07:27:27;42.20;;;21.80;;
37701;SDS011;23548;51.196;6.838;2024-01-07T07:29:53;39.42;;;21.80;;
37701;SDS011;23548;51.196;6.838;2024-01-07T07:32:18;42.33;;;21.38;;
37701;SDS011;23548;51.196;6.838;2024-01-07T07:34:44;33.70;;;17.15;;
37701;SDS011;23548;51.196;6.838;2024-01-07T07:37:12;40.22;;;22.42;;
37701;SDS011;23548;51.196;6.838;2024-01-07T07:39:38;42.85;;;21.80;;
37701;SDS011;23548;51.196;6.838;2024-01-07T07:42:04;42.28;;;22.55;;
37701;SDS011;23548;51.196;6.838;2024-01-07T07:44:30;40.67;;;22.58;;
37701;SDS011;23548;51.196;6.838;2024-01-07T07:46:56;41.90;;;23.70;;
37701;SDS011;23548;51.196;6.838;2024-01-07T07:49:21;43.92;;;23.83;;
37701;SDS011;23548;51.196;6.838;2024-01-07T07:51:47;42.78;;;22.30;;
37701;SDS011;23548;51.196;6.838;2024-01-07T07:54:13;40.28;;;23.20;;
37701;SDS011;23548;51.196;6.838;2024-01-07T07:56:38;39.58;;;21.90;;
37701;SDS011;23548;51.196;6.838;2024-01-07T07:59:04;43.15;;;22.88;;
37701;SDS011;23548;51.196;6.838;2024-01-07T08:01:30;47.65;;;24.52;;
37701;SDS011;23548;51.196;6.838;2024-01-07T08:03:56;46.80;;;25.08;;
37701;SDS011;23548;51.196;6.838;2024-01-07T08:06:22;48.50;;;23.35;;
37701;SDS011;23548;51.196;6.838;2024-01-07T08:08:48;46.28;;;23.08;;
37701;SDS011;23548;51.196;6.838;2024-01-07T08:11:13;43.78;;;24.42;;
37701;SDS011;23548;51.196;6.838;2024-01-07T08:13:39;42.38;;;23.40;;
37701;SDS011;23548;51.196;6.838;2024-01-07T08:16:06;44.17;;;23.90;;
37701;SDS011;23548;51.196;6.838;2024-01-07T08:18:32;44.80;;;23.63;;
37701;SDS011;23548;51.196;6.838;2024-01-07T08:20:58;42.05;;;23.02;;
37701;SDS011;23548;51.196;6.838;2024-01-07T08:23:24;46.90;;;24.35;;
37701;SDS011;23548;51.196;6.838;2024-01-07T08:25:50;46.03;;;24.52;;
37701;SDS011;23548;51.196;6.838;2024-01-07T08:28:16;44.72;;;23.55;;
37701;SDS011;23548;51.196;6.838;2024-01-07T08:30:43;46.95;;;24.30;;
37701;SDS011;23548;51.196;6.838;2024-01-07T08:33:09;49.85;;;26.20;;
37701;SDS011;23548;51.196;6.838;2024-01-07T08:35:35;44.83;;;25.27;;
37701;SDS011;23548;51.196;6.838;2024-01-07T08:38:02;40.75;;;22.67;;
37701;SDS011;23548;51.196;6.838;2024-01-07T08:40:28;48.33;;;24.35;;
37701;SDS011;23548;51.196;6.838;2024-01-07T08:42:54;43.22;;;22.58;;
37701;SDS011;23548;51.196;6.838;2024-01-07T08:45:20;45.92;;;23.33;;
37701;SDS011;23548;51.196;6.838;2024-01-07T08:47:46;45.85;;;24.25;;
37701;SDS011;23548;51.196;6.838;2024-01-07T08:50:12;42.67;;;23.13;;
37701;SDS011;23548;51.196;6.838;2024-01-07T08:52:38;39.03;;;21.77;;
37701;SDS011;23548;51.196;6.838;2024-01-07T08:55:04;39.08;;;21.33;;
37701;SDS011;23548;51.196;6.838;2024-01-07T08:57:31;40.42;;;21.20;;
37701;SDS011;23548;51.196;6.838;2024-01-07T08:59:57;38.22;;;20.38;;
37701;SDS011;23548;51.196;6.838;2024-01-07T09:02:23;36.42;;;20.15;;
37701;SDS011;23548;51.196;6.838;2024-01-07T09:04:50;34.78;;;19.52;;
37701;SDS011;23548;51.196;6.838;2024-01-07T09:07:16;25.30;;;15.15;;
37701;SDS011;23548;51.196;6.838;2024-01-07T09:09:42;22.33;;;13.93;;
37701;SDS011;23548;51.196;6.838;2024-01-07T09:12:08;25.25;;;14.52;;
37701;SDS011;23548;51.196;6.838;2024-01-07T09:14:33;22.05;;;13.35;;
37701;SDS011;23548;51.196;6.838;2024-01-07T09:16:59;23.02;;;13.77;;
37701;SDS011;23548;51.196;6.838;2024-01-07T09:19:25;23.92;;;14.43;;
37701;SDS011;23548;51.196;6.838;2024-01-07T09:21:50;24.17;;;14.63;;
37701;SDS011;23548;51.196;6.838;2024-01-07T09:24:17;25.33;;;16.38;;
37701;SDS011;23548;51.196;6.838;2024-01-07T09:26:43;25.88;;;16.05;;
37701;SDS011;23548;51.196;6.838;2024-01-07T09:29:09;25.45;;;15.82;;
37701;SDS011;23548;51.196;6.838;2024-01-07T09:31:35;28.27;;;17.25;;
37701;SDS011;23548;51.196;6.838;2024-01-07T09:34:01;25.15;;;16.88;;
37701;SDS011;23548;51.196;6.838;2024-01-07T09:36:28;28.23;;;17.52;;
37701;SDS011;23548;51.196;6.838;2024-01-07T09:38:54;24.45;;;15.70;;
37701;SDS011;23548;51.196;6.838;2024-01-07T09:41:19;25.58;;;14.48;;
37701;SDS011;23548;51.196;6.838;2024-01-07T09:43:45;24.90;;;15.30;;
37701;SDS011;23548;51.196;6.838;2024-01-07T09:46:11;25.48;;;15.38;;
37701;SDS011;23548;51.196;6.838;2024-01-07T09:48:38;26.02;;;16.20;;
37701;SDS011;23548;51.196;6.838;2024-01-07T09:51:03;26.30;;;15.10;;
37701;SDS011;23548;51.196;6.838;2024-01-07T09:53:31;25.42;;;15.82;;
37701;SDS011;23548;51.196;6.838;2024-01-07T09:56:10;26.80;;;16.30;;
37701;SDS011;23548;51.196;6.838;2024-01-07T09:59:04;25.42;;;16.25;;
37701;SDS011;23548;51.196;6.838;2024-01-07T10:01:31;29.63;;;17.08;;
37701;SDS011;23548;51.196;6.838;2024-01-07T10:03:57;29.15;;;16.63;;
37701;SDS011;23548;51.196;6.838;2024-01-07T10:06:23;26.27;;;14.25;;
37701;SDS011;23548;51.196;6.838;2024-01-07T10:08:50;27.40;;;16.58;;
37701;SDS011;23548;51.196;6.838;2024-01-07T10:11:16;27.63;;;16.58;;
37701;SDS011;23548;51.196;6.838;2024-01-07T10:13:42;27.95;;;16.95;;
37701;SDS011;23548;51.196;6.838;2024-01-07T10:16:12;27.20;;;15.93;;
37701;SDS011;23548;51.196;6.838;2024-01-07T10:18:39;27.42;;;16.50;;
37701;SDS011;23548;51.196;6.838;2024-01-07T10:21:06;30.92;;;17.42;;
37701;SDS011;23548;51.196;6.838;2024-01-07T10:23:32;31.05;;;16.65;;
37701;SDS011;23548;51.196;6.838;2024-01-07T10:25:57;26.95;;;16.25;;
37701;SDS011;23548;51.196;6.838;2024-01-07T10:28:23;23.85;;;14.32;;
37701;SDS011;23548;51.196;6.838;2024-01-07T10:30:49;27.88;;;15.77;;
37701;SDS011;23548;51.196;6.838;2024-01-07T10:33:16;25.92;;;15.38;;
37701;SDS011;23548;51.196;6.838;2024-01-07T10:35:45;27.08;;;15.77;;
37701;SDS011;23548;51.196;6.838;2024-01-07T10:38:18;25.85;;;16.13;;
37701;SDS011;23548;51.196;6.838;2024-01-07T10:40:43;23.23;;;13.98;;
37701;SDS011;23548;51.196;6.838;2024-01-07T10:43:12;21.92;;;13.63;;
37701;SDS011;23548;51.196;6.838;2024-01-07T10:45:40;22.60;;;13.20;;
37701;SDS011;23548;51.196;6.838;2024-01-07T10:48:07;19.75;;;12.82;;
37701;SDS011;23548;51.196;6.838;2024-01-07T10:50:34;21.67;;;13.13;;
37701;SDS011;23548;51.196;6.838;2024-01-07T10:53:03;23.60;;;14.38;;
37701;SDS011;23548;51.196;6.838;2024-01-07T10:55:33;23.40;;;13.80;;
37701;SDS011;23548;51.196;6.838;2024-01-07T10:58:03;22.77;;;13.80;;
37701;SDS011;23548;51.196;6.838;2024-01-07T11:00:29;21.90;;;14.57;;
37701;SDS011;23548;51.196;6.838;2024-01-07T11:03:00;25.10;;;14.57;;
37701;SDS011;23548;51.196;6.838;2024-01-07T11:05:59;25.02;;;14.20;;
37701;SDS011;23548;51.196;6.838;2024-01-07T11:11:06;20.48;;;12.77;;
37701;SDS011;23548;51.196;6.838;2024-01-07T11:13:38;20.77;;;13.65;;
37701;SDS011;23548;51.196;6.838;2024-01-07T11:16:05;21.73;;;13.25;;
37701;SDS011;23548;51.196;6.838;2024-01-07T11:18:37;21.08;;;13.00;;
37701;SDS011;23548;51.196;6.838;2024-01-07T11:21:05;18.75;;;12.48;;
37701;SDS011;23548;51.196;6.838;2024-01-07T11:23:42;19.92;;;12.43;;
37701;SDS011;23548;51.196;6.838;2024-01-07T11:26:08;20.88;;;12.25;;
37701;SDS011;23548;51.196;6.838;2024-01-07T11:31:10;23.13;;;13.23;;
37701;SDS011;23548;51.196;6.838;2024-01-07T11:33:37;19.25;;;11.73;;
37701;SDS011;23548;51.196;6.838;2024-01-07T11:36:04;18.75;;;11.45;;
37701;SDS011;23548;51.196;6.838;2024-01-07T11:38:30;18.80;;;10.60;;
37701;SDS011;23548;51.196;6.838;2024-01-07T11:40:56;17.92;;;9.98;;
37701;SDS011;23548;51.196;6.838;2024-01-07T11:43:24;14.75;;;9.18;;
37701;SDS011;23548;51.196;6.838;2024-01-07T11:45:50;17.40;;;8.93;;
37701;SDS011;23548;51.196;6.838;2024-01-07T11:48:16;15.98;;;9.98;;
37701;SDS011;23548;51.196;6.838;2024-01-07T11:50:45;15.25;;;9.75;;
37701;SDS011;23548;51.196;6.838;2024-01-07T11:53:11;17.83;;;9.73;;
37701;SDS011;23548;51.196;6.838;2024-01-07T11:55:38;16.20;;;9.45;;
37701;SDS011;23548;51.196;6.838;2024-01-07T11:58:04;16.08;;;10.10;;
37701;SDS011;23548;51.196;6.838;2024-01-07T12:00:33;19.73;;;12.25;;
37701;SDS011;23548;51.196;6.838;2024-01-07T12:02:59;11.90;;;7.88;;
37701;SDS011;23548;51.196;6.838;2024-01-07T12:05:26;14.35;;;8.15;;
37701;SDS011;23548;51.196;6.838;2024-01-07T12:07:52;15.50;;;8.80;;
37701;SDS011;23548;51.196;6.838;2024-01-07T12:10:18;19.63;;;10.00;;
37701;SDS011;23548;51.196;6.838;2024-01-07T12:12:44;14.90;;;8.07;;
37701;SDS011;23548;51.196;6.838;2024-01-07T12:15:11;14.63;;;8.60;;
37701;SDS011;23548;51.196;6.838;2024-01-07T12:17:38;12.90;;;7.47;;
37701;SDS011;23548;51.196;6.838;2024-01-07T12:20:04;12.02;;;7.40;;
37701;SDS011;23548;51.196;6.838;2024-01-07T12:22:32;12.20;;;8.13;;
37701;SDS011;23548;51.196;6.838;2024-01-07T12:25:05;12.18;;;7.88;;
37701;SDS011;23548;51.196;6.838;2024-01-07T12:27:31;14.07;;;7.57;;
37701;SDS011;23548;51.196;6.838;2024-01-07T12:29:59;12.57;;;7.68;;
37701;SDS011;23548;51.196;6.838;2024-01-07T12:32:28;11.90;;;7.00;;
37701;SDS011;23548;51.196;6.838;2024-01-07T12:35:00;11.32;;;7.28;;
37701;SDS011;23548;51.196;6.838;2024-01-07T12:37:27;16.90;;;8.20;;
37701;SDS011;23548;51.196;6.838;2024-01-07T12:39:53;11.30;;;7.38;;
37701;SDS011;23548;51.196;6.838;2024-01-07T12:42:22;12.32;;;7.22;;
37701;SDS011;23548;51.196;6.838;2024-01-07T12:44:49;11.05;;;6.68;;
37701;SDS011;23548;51.196;6.838;2024-01-07T12:47:15;8.98;;;5.70;;
37701;SDS011;23548;51.196;6.838;2024-01-07T12:49:41;13.13;;;7.22;;
37701;SDS011;23548;51.196;6.838;2024-01-07T12:52:09;9.93;;;6.55;;
37701;SDS011;23548;51.196;6.838;2024-01-07T12:54:35;11.00;;;7.30;;
37701;SDS011;23548;51.196;6.838;2024-01-07T12:57:02;11.10;;;6.85;;
37701;SDS011;23548;51.196;6.838;2024-01-07T12:59:27;11.70;;;7.38;;
37701;SDS011;23548;51.196;6.838;2024-01-07T13:01:53;10.95;;;6.90;;
37701;SDS011;23548;51.196;6.838;2024-01-07T13:04:19;11.35;;;6.85;;
37701;SDS011;23548;51.196;6.838;2024-01-07T13:06:45;12.45;;;7.38;;
37701;SDS011;23548;51.196;6.838;2024-01-07T13:09:11;12.93;;;7.43;;
37701;SDS011;23548;51.196;6.838;2024-01-07T13:11:37;11.52;;;7.43;;
37701;SDS011;23548;51.196;6.838;2024-01-07T13:14:03;10.80;;;7.47;;
37701;SDS011;23548;51.196;6.838;2024-01-07T13:16:28;12.25;;;7.85;;
37701;SDS011;23548;51.196;6.838;2024-01-07T13:18:54;13.05;;;7.68;;
37701;SDS011;23548;51.196;6.838;2024-01-07T13:21:20;12.13;;;7.75;;
37701;SDS011;23548;51.196;6.838;2024-01-07T13:23:46;14.10;;;7.72;;
37701;SDS011;23548;51.196;6.838;2024-01-07T13:26:16;11.43;;;7.72;;
37701;SDS011;23548;51.196;6.838;2024-01-07T13:28:42;14.10;;;7.50;;
37701;SDS011;23548;51.196;6.838;2024-01-07T13:31:08;11.73;;;6.82;;
37701;SDS011;23548;51.196;6.838;2024-01-07T13:33:37;10.63;;;6.80;;
37701;SDS011;23548;51.196;6.838;2024-01-07T13:36:03;9.45;;;5.85;;
37701;SDS011;23548;51.196;6.838;2024-01-07T13:38:33;9.82;;;6.35;;
37701;SDS011;23548;51.196;6.838;2024-01-07T13:41:00;11.75;;;6.65;;
37701;SDS011;23548;51.196;6.838;2024-01-07T13:43:26;9.38;;;6.82;;
37701;SDS011;23548;51.196;6.838;2024-01-07T13:45:54;10.63;;;7.35;;
37701;SDS011;23548;51.196;6.838;2024-01-07T13:48:20;11.93;;;7.15;;
37701;SDS011;23548;51.196;6.838;2024-01-07T13:50:46;9.98;;;6.45;;
37701;SDS011;23548;51.196;6.838;2024-01-07T13:53:13;14.13;;;6.82;;
37701;SDS011;23548;51.196;6.838;2024-01-07T13:55:39;9.38;;;6.53;;
37701;SDS011;23548;51.196;6.838;2024-01-07T13:58:05;8.48;;;6.03;;
37701;SDS011;23548;51.196;6.838;2024-01-07T14:00:31;9.95;;;6.20;;
37701;SDS011;23548;51.196;6.838;2024-01-07T14:02:57;9.48;;;6.10;;
37701;SDS011;23548;51.196;6.838;2024-01-07T14:05:22;8.73;;;5.72;;
37701;SDS011;23548;51.196;6.838;2024-01-07T14:07:48;11.38;;;6.15;;
37701;SDS011;23548;51.196;6.838;2024-01-07T14:10:14;11.02;;;7.18;;
37701;SDS011;23548;51.196;6.838;2024-01-07T14:12:39;8.65;;;5.75;;
37701;SDS011;23548;51.196;6.838;2024-01-07T14:15:05;8.18;;;5.32;;
37701;SDS011;23548;51.196;6.838;2024-01-07T14:17:34;9.70;;;5.55;;
37701;SDS011;23548;51.196;6.838;2024-01-07T14:19:59;7.43;;;5.28;;
37701;SDS011;23548;51.196;6.838;2024-01-07T14:22:25;7.55;;;5.03;;
37701;SDS011;23548;51.196;6.838;2024-01-07T14:24:51;9.15;;;5.22;;
37701;SDS011;23548;51.196;6.838;2024-01-07T14:27:17;9.40;;;4.57;;